sensor_id;sensor_type;location;lat;lon;timestamp;pressure;altitude;pressure_sealevel;temperature
5571;BMP180;2808;51.240;6.794;2023-03-14T00:00:06;98677.00;;;11.50
5571;BMP180;2808;51.240;6.794;2023-03-14T00:02:40;98667.00;;;11.60
5571;BMP180;2808;51.240;6.794;2023-03-14T00:05:09;98652.00;;;11.60
5571;BMP180;2808;51.240;6.794;2023-03-14T00:07:38;98644.00;;;11.70
5571;BMP180;2808;51.240;6.794;2023-03-14T00:10:08;98639.00;;;11.80
5571;BMP180;2808;51.240;6.794;2023-03-14T00:12:36;98625.00;;;11.80
5571;BMP180;2808;51.240;6.794;2023-03-14T00:15:04;98619.00;;;11.70
5571;BMP180;2808;51.240;6.794;2023-03-14T00:17:35;98630.00;;;11.70
5571;BMP180;2808;51.240;6.794;2023-03-14T00:20:09;98633.00;;;11.70
5571;BMP180;2808;51.240;6.794;2023-03-14T00:22:38;98639.00;;;11.70
5571;BMP180;2808;51.240;6.794;2023-03-14T00:25:06;98644.00;;;11.70
5571;BMP180;2808;51.240;6.794;2023-03-14T00:27:34;98665.00;;;11.70
5571;BMP180;2808;51.240;6.794;2023-03-14T00:30:02;98664.00;;;11.70
5571;BMP180;2808;51.240;6.794;2023-03-14T00:32:30;98674.00;;;11.80
5571;BMP180;2808;51.240;6.794;2023-03-14T00:34:58;98693.00;;;11.80
5571;BMP180;2808;51.240;6.794;2023-03-14T00:37:28;98722.00;;;11.80
5571;BMP180;2808;51.240;6.794;2023-03-14T00:39:55;98742.00;;;11.70
5571;BMP180;2808;51.240;6.794;2023-03-14T00:42:24;98738.00;;;11.60
5571;BMP180;2808;51.240;6.794;2023-03-14T00:44:52;98739.00;;;11.40
5571;BMP180;2808;51.240;6.794;2023-03-14T00:47:19;98730.00;;;11.20
5571;BMP180;2808;51.240;6.794;2023-03-14T00:49:46;98719.00;;;11.10
5571;BMP180;2808;51.240;6.794;2023-03-14T00:52:14;98710.00;;;11.00
5571;BMP180;2808;51.240;6.794;2023-03-14T00:54:45;98703.00;;;10.90
5571;BMP180;2808;51.240;6.794;2023-03-14T00:57:12;98703.00;;;10.80
5571;BMP180;2808;51.240;6.794;2023-03-14T00:59:40;98708.00;;;10.80
5571;BMP180;2808;51.240;6.794;2023-03-14T01:02:07;98706.00;;;10.70
5571;BMP180;2808;51.240;6.794;2023-03-14T01:04:35;98701.00;;;10.60
5571;BMP180;2808;51.240;6.794;2023-03-14T01:07:03;98690.00;;;10.60
5571;BMP180;2808;51.240;6.794;2023-03-14T01:09:31;98695.00;;;10.50
5571;BMP180;2808;51.240;6.794;2023-03-14T01:12:00;98691.00;;;10.50
5571;BMP180;2808;51.240;6.794;2023-03-14T01:14:27;98694.00;;;10.40
5571;BMP180;2808;51.240;6.794;2023-03-14T01:16:54;98694.00;;;10.40
5571;BMP180;2808;51.240;6.794;2023-03-14T01:19:26;98702.00;;;10.30
5571;BMP180;2808;51.240;6.794;2023-03-14T01:21:54;98700.00;;;10.30
5571;BMP180;2808;51.240;6.794;2023-03-14T01:24:22;98699.00;;;10.30
5571;BMP180;2808;51.240;6.794;2023-03-14T01:26:49;98693.00;;;10.30
5571;BMP180;2808;51.240;6.794;2023-03-14T01:29:18;98687.00;;;10.30
5571;BMP180;2808;51.240;6.794;2023-03-14T01:31:46;98666.00;;;10.20
5571;BMP180;2808;51.240;6.794;2023-03-14T01:34:17;98668.00;;;10.10
5571;BMP180;2808;51.240;6.794;2023-03-14T01:36:47;98670.00;;;10.10
5571;BMP180;2808;51.240;6.794;2023-03-14T01:39:15;98664.00;;;10.10
5571;BMP180;2808;51.240;6.794;2023-03-14T01:41:42;98664.00;;;10.10
5571;BMP180;2808;51.240;6.794;2023-03-14T01:44:11;98672.00;;;10.20
5571;BMP180;2808;51.240;6.794;2023-03-14T01:46:41;98665.00;;;10.20
5571;BMP180;2808;51.240;6.794;2023-03-14T01:49:21;98671.00;;;10.20
5571;BMP180;2808;51.240;6.794;2023-03-14T01:51:54;98666.00;;;10.30
5571;BMP180;2808;51.240;6.794;2023-03-14T01:54:26;98654.00;;;10.30
5571;BMP180;2808;51.240;6.794;2023-03-14T01:56:57;98653.00;;;10.30
5571;BMP180;2808;51.240;6.794;2023-03-14T01:59:30;98652.00;;;10.40
5571;BMP180;2808;51.240;6.794;2023-03-14T02:02:00;98652.00;;;10.50
5571;BMP180;2808;51.240;6.794;2023-03-14T02:04:31;98655.00;;;10.50
5571;BMP180;2808;51.240;6.794;2023-03-14T02:07:03;98651.00;;;10.50
5571;BMP180;2808;51.240;6.794;2023-03-14T02:09:32;98647.00;;;10.50
5571;BMP180;2808;51.240;6.794;2023-03-14T02:11:59;98642.00;;;10.40
5571;BMP180;2808;51.240;6.794;2023-03-14T02:14:32;98646.00;;;10.40
5571;BMP180;2808;51.240;6.794;2023-03-14T02:17:02;98659.00;;;10.40
5571;BMP180;2808;51.240;6.794;2023-03-14T02:19:43;98655.00;;;10.40
5571;BMP180;2808;51.240;6.794;2023-03-14T02:22:15;98655.00;;;10.40
5571;BMP180;2808;51.240;6.794;2023-03-14T02:24:48;98655.00;;;10.40
5571;BMP180;2808;51.240;6.794;2023-03-14T02:27:20;98648.00;;;10.40
5571;BMP180;2808;51.240;6.794;2023-03-14T02:29:51;98640.00;;;10.40
5571;BMP180;2808;51.240;6.794;2023-03-14T02:32:20;98655.00;;;10.40
5571;BMP180;2808;51.240;6.794;2023-03-14T02:34:52;98656.00;;;10.40
5571;BMP180;2808;51.240;6.794;2023-03-14T02:37:23;98660.00;;;10.40
5571;BMP180;2808;51.240;6.794;2023-03-14T02:39:52;98664.00;;;10.50
5571;BMP180;2808;51.240;6.794;2023-03-14T02:42:22;98657.00;;;10.50
5571;BMP180;2808;51.240;6.794;2023-03-14T02:44:52;98654.00;;;10.50
5571;BMP180;2808;51.240;6.794;2023-03-14T02:47:26;98642.00;;;10.50
5571;BMP180;2808;51.240;6.794;2023-03-14T02:49:58;98650.00;;;10.50
5571;BMP180;2808;51.240;6.794;2023-03-14T02:52:27;98651.00;;;10.60
5571;BMP180;2808;51.240;6.794;2023-03-14T02:54:54;98642.00;;;10.60
5571;BMP180;2808;51.240;6.794;2023-03-14T02:57:23;98638.00;;;10.60
5571;BMP180;2808;51.240;6.794;2023-03-14T02:59:50;98643.00;;;10.50
5571;BMP180;2808;51.240;6.794;2023-03-14T03:02:18;98643.00;;;10.50
5571;BMP180;2808;51.240;6.794;2023-03-14T03:04:45;98633.00;;;10.50
5571;BMP180;2808;51.240;6.794;2023-03-14T03:07:13;98625.00;;;10.50
5571;BMP180;2808;51.240;6.794;2023-03-14T03:09:40;98628.00;;;10.50
5571;BMP180;2808;51.240;6.794;2023-03-14T03:12:08;98624.00;;;10.50
5571;BMP180;2808;51.240;6.794;2023-03-14T03:14:37;98621.00;;;10.50
5571;BMP180;2808;51.240;6.794;2023-03-14T03:17:05;98621.00;;;10.50
5571;BMP180;2808;51.240;6.794;2023-03-14T03:19:33;98612.00;;;10.50
5571;BMP180;2808;51.240;6.794;2023-03-14T03:22:01;98623.00;;;10.60
5571;BMP180;2808;51.240;6.794;2023-03-14T03:24:29;98621.00;;;10.60
5571;BMP180;2808;51.240;6.794;2023-03-14T03:26:56;98621.00;;;10.60
5571;BMP180;2808;51.240;6.794;2023-03-14T03:29:24;98616.00;;;10.50
5571;BMP180;2808;51.240;6.794;2023-03-14T03:31:53;98616.00;;;10.50
5571;BMP180;2808;51.240;6.794;2023-03-14T03:34:20;98627.00;;;10.40
5571;BMP180;2808;51.240;6.794;2023-03-14T03:36:48;98626.00;;;10.40
5571;BMP180;2808;51.240;6.794;2023-03-14T03:39:15;98626.00;;;10.40
5571;BMP180;2808;51.240;6.794;2023-03-14T03:41:43;98615.00;;;10.30
5571;BMP180;2808;51.240;6.794;2023-03-14T03:44:10;98619.00;;;10.20
5571;BMP180;2808;51.240;6.794;2023-03-14T03:46:38;98615.00;;;10.20
5571;BMP180;2808;51.240;6.794;2023-03-14T03:49:08;98613.00;;;10.20
5571;BMP180;2808;51.240;6.794;2023-03-14T03:51:35;98607.00;;;10.20
5571;BMP180;2808;51.240;6.794;2023-03-14T03:54:03;98607.00;;;10.20
5571;BMP180;2808;51.240;6.794;2023-03-14T03:56:30;98609.00;;;10.20
5571;BMP180;2808;51.240;6.794;2023-03-14T03:58:58;98604.00;;;10.10
5571;BMP180;2808;51.240;6.794;2023-03-14T04:01:25;98595.00;;;10.10
5571;BMP180;2808;51.240;6.794;2023-03-14T04:03:53;98581.00;;;10.20
5571;BMP180;2808;51.240;6.794;2023-03-14T04:06:22;98590.00;;;10.10
5571;BMP180;2808;51.240;6.794;2023-03-14T04:08:49;98589.00;;;10.20
5571;BMP180;2808;51.240;6.794;2023-03-14T04:11:17;98586.00;;;10.20
5571;BMP180;2808;51.240;6.794;2023-03-14T04:13:44;98579.00;;;10.20
5571;BMP180;2808;51.240;6.794;2023-03-14T04:16:15;98572.00;;;10.20
5571;BMP180;2808;51.240;6.794;2023-03-14T04:18:43;98571.00;;;10.20
5571;BMP180;2808;51.240;6.794;2023-03-14T04:21:11;98575.00;;;10.20
5571;BMP180;2808;51.240;6.794;2023-03-14T04:23:41;98573.00;;;10.20
5571;BMP180;2808;51.240;6.794;2023-03-14T04:26:08;98588.00;;;10.20
5571;BMP180;2808;51.240;6.794;2023-03-14T04:28:36;98585.00;;;10.20
5571;BMP180;2808;51.240;6.794;2023-03-14T04:31:07;98596.00;;;10.30
5571;BMP180;2808;51.240;6.794;2023-03-14T04:33:35;98584.00;;;10.30
5571;BMP180;2808;51.240;6.794;2023-03-14T04:36:04;98553.00;;;10.20
5571;BMP180;2808;51.240;6.794;2023-03-14T04:38:32;98564.00;;;10.20
5571;BMP180;2808;51.240;6.794;2023-03-14T04:41:01;98548.00;;;10.20
5571;BMP180;2808;51.240;6.794;2023-03-14T04:43:29;98572.00;;;10.20
5571;BMP180;2808;51.240;6.794;2023-03-14T04:45:57;98585.00;;;10.20
5571;BMP180;2808;51.240;6.794;2023-03-14T04:48:25;98566.00;;;10.20
5571;BMP180;2808;51.240;6.794;2023-03-14T04:50:54;98556.00;;;10.20
5571;BMP180;2808;51.240;6.794;2023-03-14T04:53:22;98552.00;;;10.10
5571;BMP180;2808;51.240;6.794;2023-03-14T04:55:50;98556.00;;;10.10
5571;BMP180;2808;51.240;6.794;2023-03-14T04:58:19;98543.00;;;10.10
5571;BMP180;2808;51.240;6.794;2023-03-14T05:00:47;98530.00;;;10.10
5571;BMP180;2808;51.240;6.794;2023-03-14T05:03:15;98522.00;;;10.10
5571;BMP180;2808;51.240;6.794;2023-03-14T05:05:43;98519.00;;;10.10
5571;BMP180;2808;51.240;6.794;2023-03-14T05:08:11;98516.00;;;10.10
5571;BMP180;2808;51.240;6.794;2023-03-14T05:10:39;98521.00;;;10.10
5571;BMP180;2808;51.240;6.794;2023-03-14T05:13:06;98510.00;;;10.10
5571;BMP180;2808;51.240;6.794;2023-03-14T05:15:38;98513.00;;;10.10
5571;BMP180;2808;51.240;6.794;2023-03-14T05:18:05;98504.00;;;10.00
5571;BMP180;2808;51.240;6.794;2023-03-14T05:20:33;98501.00;;;10.00
5571;BMP180;2808;51.240;6.794;2023-03-14T05:23:01;98503.00;;;10.00
5571;BMP180;2808;51.240;6.794;2023-03-14T05:25:29;98504.00;;;10.00
5571;BMP180;2808;51.240;6.794;2023-03-14T05:27:56;98494.00;;;10.00
5571;BMP180;2808;51.240;6.794;2023-03-14T05:30:24;98490.00;;;10.00
5571;BMP180;2808;51.240;6.794;2023-03-14T05:32:53;98493.00;;;10.00
5571;BMP180;2808;51.240;6.794;2023-03-14T05:35:20;98480.00;;;10.00
5571;BMP180;2808;51.240;6.794;2023-03-14T05:37:48;98484.00;;;10.00
5571;BMP180;2808;51.240;6.794;2023-03-14T05:40:15;98483.00;;;10.00
5571;BMP180;2808;51.240;6.794;2023-03-14T05:42:43;98485.00;;;10.00
5571;BMP180;2808;51.240;6.794;2023-03-14T05:45:11;98481.00;;;10.00
5571;BMP180;2808;51.240;6.794;2023-03-14T05:47:38;98487.00;;;10.00
5571;BMP180;2808;51.240;6.794;2023-03-14T05:50:08;98490.00;;;10.00
5571;BMP180;2808;51.240;6.794;2023-03-14T05:52:36;98480.00;;;10.00
5571;BMP180;2808;51.240;6.794;2023-03-14T05:55:04;98480.00;;;10.00
5571;BMP180;2808;51.240;6.794;2023-03-14T05:57:32;98490.00;;;10.00
5571;BMP180;2808;51.240;6.794;2023-03-14T05:59:59;98478.00;;;10.00
5571;BMP180;2808;51.240;6.794;2023-03-14T06:02:28;98489.00;;;10.00
5571;BMP180;2808;51.240;6.794;2023-03-14T06:04:56;98480.00;;;10.00
5571;BMP180;2808;51.240;6.794;2023-03-14T06:07:24;98476.00;;;10.10
5571;BMP180;2808;51.240;6.794;2023-03-14T06:09:52;98486.00;;;10.10
5571;BMP180;2808;51.240;6.794;2023-03-14T06:12:19;98478.00;;;10.10
5571;BMP180;2808;51.240;6.794;2023-03-14T06:14:47;98485.00;;;10.10
5571;BMP180;2808;51.240;6.794;2023-03-14T06:17:15;98477.00;;;10.10
5571;BMP180;2808;51.240;6.794;2023-03-14T06:19:42;98479.00;;;10.20
5571;BMP180;2808;51.240;6.794;2023-03-14T06:22:10;98481.00;;;10.20
5571;BMP180;2808;51.240;6.794;2023-03-14T06:24:39;98480.00;;;10.30
5571;BMP180;2808;51.240;6.794;2023-03-14T06:27:06;98482.00;;;10.30
5571;BMP180;2808;51.240;6.794;2023-03-14T06:29:34;98486.00;;;10.30
5571;BMP180;2808;51.240;6.794;2023-03-14T06:32:01;98489.00;;;10.30
5571;BMP180;2808;51.240;6.794;2023-03-14T06:34:29;98489.00;;;10.30
5571;BMP180;2808;51.240;6.794;2023-03-14T06:36:56;98495.00;;;10.40
5571;BMP180;2808;51.240;6.794;2023-03-14T06:39:24;98479.00;;;10.40
5571;BMP180;2808;51.240;6.794;2023-03-14T06:41:52;98485.00;;;10.40
5571;BMP180;2808;51.240;6.794;2023-03-14T06:44:20;98492.00;;;10.40
5571;BMP180;2808;51.240;6.794;2023-03-14T06:46:47;98492.00;;;10.40
5571;BMP180;2808;51.240;6.794;2023-03-14T06:49:14;98495.00;;;10.40
5571;BMP180;2808;51.240;6.794;2023-03-14T06:51:48;98498.00;;;10.50
5571;BMP180;2808;51.240;6.794;2023-03-14T06:54:16;98495.00;;;10.50
5571;BMP180;2808;51.240;6.794;2023-03-14T06:56:44;98488.00;;;10.60
5571;BMP180;2808;51.240;6.794;2023-03-14T06:59:13;98494.00;;;10.60
5571;BMP180;2808;51.240;6.794;2023-03-14T07:01:41;98499.00;;;10.70
5571;BMP180;2808;51.240;6.794;2023-03-14T07:04:09;98499.00;;;10.70
5571;BMP180;2808;51.240;6.794;2023-03-14T07:06:41;98492.00;;;10.60
5571;BMP180;2808;51.240;6.794;2023-03-14T07:09:12;98507.00;;;10.60
5571;BMP180;2808;51.240;6.794;2023-03-14T07:11:46;98502.00;;;10.60
5571;BMP180;2808;51.240;6.794;2023-03-14T07:17:44;98508.00;;;10.70
5571;BMP180;2808;51.240;6.794;2023-03-14T07:20:14;98514.00;;;10.70
5571;BMP180;2808;51.240;6.794;2023-03-14T07:22:44;98517.00;;;10.70
5571;BMP180;2808;51.240;6.794;2023-03-14T07:25:14;98518.00;;;10.70
5571;BMP180;2808;51.240;6.794;2023-03-14T07:27:44;98524.00;;;10.70
5571;BMP180;2808;51.240;6.794;2023-03-14T07:30:15;98525.00;;;10.70
5571;BMP180;2808;51.240;6.794;2023-03-14T07:33:01;98520.00;;;10.80
5571;BMP180;2808;51.240;6.794;2023-03-14T07:35:31;98515.00;;;10.90
5571;BMP180;2808;51.240;6.794;2023-03-14T07:38:12;98526.00;;;10.80
5571;BMP180;2808;51.240;6.794;2023-03-14T07:40:42;98518.00;;;10.80
5571;BMP180;2808;51.240;6.794;2023-03-14T07:43:09;98529.00;;;10.80
5571;BMP180;2808;51.240;6.794;2023-03-14T07:45:37;98535.00;;;10.90
5571;BMP180;2808;51.240;6.794;2023-03-14T07:48:06;98528.00;;;11.00
5571;BMP180;2808;51.240;6.794;2023-03-14T07:50:41;98536.00;;;11.20
5571;BMP180;2808;51.240;6.794;2023-03-14T07:53:08;98527.00;;;11.30
5571;BMP180;2808;51.240;6.794;2023-03-14T07:55:39;98535.00;;;11.30
5571;BMP180;2808;51.240;6.794;2023-03-14T07:58:07;98534.00;;;11.40
5571;BMP180;2808;51.240;6.794;2023-03-14T08:00:35;98524.00;;;11.60
5571;BMP180;2808;51.240;6.794;2023-03-14T08:03:02;98539.00;;;11.70
5571;BMP180;2808;51.240;6.794;2023-03-14T08:05:34;98548.00;;;11.90
5571;BMP180;2808;51.240;6.794;2023-03-14T08:08:02;98540.00;;;11.80
5571;BMP180;2808;51.240;6.794;2023-03-14T08:10:30;98542.00;;;11.80
5571;BMP180;2808;51.240;6.794;2023-03-14T08:12:59;98540.00;;;11.70
5571;BMP180;2808;51.240;6.794;2023-03-14T08:15:29;98538.00;;;11.70
5571;BMP180;2808;51.240;6.794;2023-03-14T08:18:10;98542.00;;;11.80
5571;BMP180;2808;51.240;6.794;2023-03-14T08:20:39;98527.00;;;11.80
5571;BMP180;2808;51.240;6.794;2023-03-14T08:23:09;98540.00;;;11.80
5571;BMP180;2808;51.240;6.794;2023-03-14T08:25:50;98545.00;;;11.80
5571;BMP180;2808;51.240;6.794;2023-03-14T08:28:21;98544.00;;;11.70
5571;BMP180;2808;51.240;6.794;2023-03-14T08:30:49;98545.00;;;11.60
5571;BMP180;2808;51.240;6.794;2023-03-14T08:33:17;98543.00;;;11.60
5571;BMP180;2808;51.240;6.794;2023-03-14T08:35:51;98548.00;;;11.60
5571;BMP180;2808;51.240;6.794;2023-03-14T08:38:19;98542.00;;;11.60
5571;BMP180;2808;51.240;6.794;2023-03-14T08:40:46;98549.00;;;11.60
5571;BMP180;2808;51.240;6.794;2023-03-14T08:43:15;98543.00;;;11.60
5571;BMP180;2808;51.240;6.794;2023-03-14T08:45:42;98551.00;;;11.60
5571;BMP180;2808;51.240;6.794;2023-03-14T08:48:10;98556.00;;;11.60
5571;BMP180;2808;51.240;6.794;2023-03-14T08:50:38;98564.00;;;11.60
5571;BMP180;2808;51.240;6.794;2023-03-14T08:53:07;98577.00;;;11.60
5571;BMP180;2808;51.240;6.794;2023-03-14T08:55:36;98584.00;;;11.50
5571;BMP180;2808;51.240;6.794;2023-03-14T08:58:06;98588.00;;;11.40
5571;BMP180;2808;51.240;6.794;2023-03-14T09:00:38;98596.00;;;11.40
5571;BMP180;2808;51.240;6.794;2023-03-14T09:03:05;98603.00;;;11.40
5571;BMP180;2808;51.240;6.794;2023-03-14T09:05:35;98603.00;;;11.40
5571;BMP180;2808;51.240;6.794;2023-03-14T09:08:03;98605.00;;;11.50
5571;BMP180;2808;51.240;6.794;2023-03-14T09:10:34;98613.00;;;11.50
5571;BMP180;2808;51.240;6.794;2023-03-14T09:13:01;98604.00;;;11.40
5571;BMP180;2808;51.240;6.794;2023-03-14T09:15:32;98618.00;;;11.40
5571;BMP180;2808;51.240;6.794;2023-03-14T09:17:59;98616.00;;;11.40
5571;BMP180;2808;51.240;6.794;2023-03-14T09:20:27;98626.00;;;11.30
5571;BMP180;2808;51.240;6.794;2023-03-14T09:22:54;98664.00;;;11.30
5571;BMP180;2808;51.240;6.794;2023-03-14T09:25:22;98688.00;;;11.00
5571;BMP180;2808;51.240;6.794;2023-03-14T09:27:59;98702.00;;;10.60
5571;BMP180;2808;51.240;6.794;2023-03-14T09:30:27;98713.00;;;10.50
5571;BMP180;2808;51.240;6.794;2023-03-14T09:32:54;98726.00;;;10.50
5571;BMP180;2808;51.240;6.794;2023-03-14T09:35:23;98742.00;;;10.40
5571;BMP180;2808;51.240;6.794;2023-03-14T09:37:50;98757.00;;;10.20
5571;BMP180;2808;51.240;6.794;2023-03-14T09:40:19;98762.00;;;10.10
5571;BMP180;2808;51.240;6.794;2023-03-14T09:42:50;98783.00;;;10.00
5571;BMP180;2808;51.240;6.794;2023-03-14T09:45:23;98784.00;;;10.00
5571;BMP180;2808;51.240;6.794;2023-03-14T09:47:53;98800.00;;;9.90
5571;BMP180;2808;51.240;6.794;2023-03-14T09:50:21;98815.00;;;9.90
5571;BMP180;2808;51.240;6.794;2023-03-14T09:52:54;98817.00;;;9.90
5571;BMP180;2808;51.240;6.794;2023-03-14T09:55:23;98826.00;;;10.00
5571;BMP180;2808;51.240;6.794;2023-03-14T09:57:58;98843.00;;;10.00
5571;BMP180;2808;51.240;6.794;2023-03-14T10:00:29;98843.00;;;9.90
5571;BMP180;2808;51.240;6.794;2023-03-14T10:03:04;98845.00;;;9.80
5571;BMP180;2808;51.240;6.794;2023-03-14T10:05:43;98859.00;;;9.90
5571;BMP180;2808;51.240;6.794;2023-03-14T10:08:11;98867.00;;;9.90
5571;BMP180;2808;51.240;6.794;2023-03-14T10:10:39;98893.00;;;9.90
5571;BMP180;2808;51.240;6.794;2023-03-14T10:13:16;98887.00;;;9.80
5571;BMP180;2808;51.240;6.794;2023-03-14T10:15:52;98893.00;;;9.90
5571;BMP180;2808;51.240;6.794;2023-03-14T10:18:20;98907.00;;;9.90
5571;BMP180;2808;51.240;6.794;2023-03-14T10:21:00;98901.00;;;9.70
5571;BMP180;2808;51.240;6.794;2023-03-14T10:23:30;98910.00;;;9.70
5571;BMP180;2808;51.240;6.794;2023-03-14T10:26:06;98926.00;;;9.80
5571;BMP180;2808;51.240;6.794;2023-03-14T10:28:43;98939.00;;;9.90
5571;BMP180;2808;51.240;6.794;2023-03-14T10:31:11;98944.00;;;10.10
5571;BMP180;2808;51.240;6.794;2023-03-14T10:33:39;98954.00;;;10.10
5571;BMP180;2808;51.240;6.794;2023-03-14T10:36:17;98960.00;;;10.00
5571;BMP180;2808;51.240;6.794;2023-03-14T10:38:47;98967.00;;;10.00
5571;BMP180;2808;51.240;6.794;2023-03-14T10:41:17;98971.00;;;10.00
5571;BMP180;2808;51.240;6.794;2023-03-14T10:43:50;98987.00;;;10.10
5571;BMP180;2808;51.240;6.794;2023-03-14T10:46:19;98987.00;;;10.00
5571;BMP180;2808;51.240;6.794;2023-03-14T10:48:47;99000.00;;;10.10
5571;BMP180;2808;51.240;6.794;2023-03-14T10:51:22;99010.00;;;10.00
5571;BMP180;2808;51.240;6.794;2023-03-14T10:54:00;99023.00;;;10.00
5571;BMP180;2808;51.240;6.794;2023-03-14T10:56:35;99041.00;;;9.90
5571;BMP180;2808;51.240;6.794;2023-03-14T10:59:14;99065.00;;;9.80
5571;BMP180;2808;51.240;6.794;2023-03-14T11:01:50;99087.00;;;9.60
5571;BMP180;2808;51.240;6.794;2023-03-14T11:04:38;99090.00;;;9.30
5571;BMP180;2808;51.240;6.794;2023-03-14T11:07:14;99110.00;;;9.10
5571;BMP180;2808;51.240;6.794;2023-03-14T11:09:51;99125.00;;;9.00
5571;BMP180;2808;51.240;6.794;2023-03-14T11:12:32;99128.00;;;9.10
5571;BMP180;2808;51.240;6.794;2023-03-14T11:15:09;99143.00;;;9.00
5571;BMP180;2808;51.240;6.794;2023-03-14T11:17:44;99147.00;;;8.80
5571;BMP180;2808;51.240;6.794;2023-03-14T11:20:32;99150.00;;;8.70
5571;BMP180;2808;51.240;6.794;2023-03-14T11:23:03;99171.00;;;8.70
5571;BMP180;2808;51.240;6.794;2023-03-14T11:25:40;99181.00;;;8.50
5571;BMP180;2808;51.240;6.794;2023-03-14T11:28:18;99187.00;;;8.40
5571;BMP180;2808;51.240;6.794;2023-03-14T11:30:54;99195.00;;;8.30
5571;BMP180;2808;51.240;6.794;2023-03-14T11:33:25;99209.00;;;8.40
5571;BMP180;2808;51.240;6.794;2023-03-14T11:36:02;99210.00;;;8.50
5571;BMP180;2808;51.240;6.794;2023-03-14T11:38:37;99223.00;;;8.70
5571;BMP180;2808;51.240;6.794;2023-03-14T11:41:10;99235.00;;;8.70
5571;BMP180;2808;51.240;6.794;2023-03-14T11:43:40;99226.00;;;8.60
5571;BMP180;2808;51.240;6.794;2023-03-14T11:46:13;99251.00;;;8.50
5571;BMP180;2808;51.240;6.794;2023-03-14T11:48:45;99248.00;;;8.50
5571;BMP180;2808;51.240;6.794;2023-03-14T11:51:23;99265.00;;;8.40
5571;BMP180;2808;51.240;6.794;2023-03-14T11:53:59;99261.00;;;8.40
5571;BMP180;2808;51.240;6.794;2023-03-14T11:56:33;99266.00;;;8.60
5571;BMP180;2808;51.240;6.794;2023-03-14T11:59:05;99267.00;;;8.70
5571;BMP180;2808;51.240;6.794;2023-03-14T12:01:48;99285.00;;;8.80
5571;BMP180;2808;51.240;6.794;2023-03-14T12:07:08;99300.00;;;8.70
5571;BMP180;2808;51.240;6.794;2023-03-14T12:09:40;99325.00;;;8.50
5571;BMP180;2808;51.240;6.794;2023-03-14T12:12:21;99336.00;;;8.40
5571;BMP180;2808;51.240;6.794;2023-03-14T12:15:01;99332.00;;;8.30
5571;BMP180;2808;51.240;6.794;2023-03-14T12:17:36;99342.00;;;8.50
5571;BMP180;2808;51.240;6.794;2023-03-14T12:20:16;99351.00;;;8.70
5571;BMP180;2808;51.240;6.794;2023-03-14T12:22:49;99361.00;;;8.80
5571;BMP180;2808;51.240;6.794;2023-03-14T12:25:20;99366.00;;;9.00
5571;BMP180;2808;51.240;6.794;2023-03-14T12:28:03;99375.00;;;9.30
5571;BMP180;2808;51.240;6.794;2023-03-14T12:30:44;99378.00;;;9.40
5571;BMP180;2808;51.240;6.794;2023-03-14T12:33:27;99385.00;;;9.40
5571;BMP180;2808;51.240;6.794;2023-03-14T12:35:59;99401.00;;;9.50
5571;BMP180;2808;51.240;6.794;2023-03-14T12:38:37;99411.00;;;9.50
5571;BMP180;2808;51.240;6.794;2023-03-14T12:41:16;99411.00;;;9.30
5571;BMP180;2808;51.240;6.794;2023-03-14T12:43:45;99413.00;;;9.30
5571;BMP180;2808;51.240;6.794;2023-03-14T12:46:23;99421.00;;;9.30
5571;BMP180;2808;51.240;6.794;2023-03-14T12:49:03;99431.00;;;9.30
5571;BMP180;2808;51.240;6.794;2023-03-14T12:51:36;99447.00;;;9.30
5571;BMP180;2808;51.240;6.794;2023-03-14T12:54:25;99461.00;;;9.30
5571;BMP180;2808;51.240;6.794;2023-03-14T12:59:56;99498.00;;;8.60
5571;BMP180;2808;51.240;6.794;2023-03-14T13:02:39;99509.00;;;8.60
5571;BMP180;2808;51.240;6.794;2023-03-14T13:08:08;99530.00;;;8.50
5571;BMP180;2808;51.240;6.794;2023-03-14T13:10:58;99536.00;;;8.50
5571;BMP180;2808;51.240;6.794;2023-03-14T13:13:36;99544.00;;;8.70
5571;BMP180;2808;51.240;6.794;2023-03-14T13:16:16;99551.00;;;8.70
5571;BMP180;2808;51.240;6.794;2023-03-14T13:18:46;99560.00;;;8.70
5571;BMP180;2808;51.240;6.794;2023-03-14T13:21:22;99568.00;;;8.60
5571;BMP180;2808;51.240;6.794;2023-03-14T13:23:58;99573.00;;;8.70
5571;BMP180;2808;51.240;6.794;2023-03-14T13:26:34;99583.00;;;8.80
5571;BMP180;2808;51.240;6.794;2023-03-14T13:29:19;99579.00;;;9.00
5571;BMP180;2808;51.240;6.794;2023-03-14T13:31:48;99584.00;;;9.20
5571;BMP180;2808;51.240;6.794;2023-03-14T13:34:19;99590.00;;;9.20
5571;BMP180;2808;51.240;6.794;2023-03-14T13:36:58;99594.00;;;9.20
5571;BMP180;2808;51.240;6.794;2023-03-14T13:39:27;99608.00;;;9.20
5571;BMP180;2808;51.240;6.794;2023-03-14T13:42:00;99637.00;;;9.00
5571;BMP180;2808;51.240;6.794;2023-03-14T13:44:31;99638.00;;;8.30
5571;BMP180;2808;51.240;6.794;2023-03-14T13:47:00;99631.00;;;7.90
5571;BMP180;2808;51.240;6.794;2023-03-14T13:49:39;99635.00;;;7.70
5571;BMP180;2808;51.240;6.794;2023-03-14T14:05:28;99654.00;;;8.10
5571;BMP180;2808;51.240;6.794;2023-03-14T14:07:59;99651.00;;;8.10
5571;BMP180;2808;51.240;6.794;2023-03-14T14:10:31;99662.00;;;8.10
5571;BMP180;2808;51.240;6.794;2023-03-14T14:13:03;99677.00;;;8.00
5571;BMP180;2808;51.240;6.794;2023-03-14T14:15:59;99675.00;;;8.00
5571;BMP180;2808;51.240;6.794;2023-03-14T14:18:47;99678.00;;;8.10
5571;BMP180;2808;51.240;6.794;2023-03-14T14:21:25;99681.00;;;8.00
5571;BMP180;2808;51.240;6.794;2023-03-14T14:24:01;99682.00;;;7.80
5571;BMP180;2808;51.240;6.794;2023-03-14T14:26:39;99684.00;;;7.80
5571;BMP180;2808;51.240;6.794;2023-03-14T14:29:16;99682.00;;;7.80
5571;BMP180;2808;51.240;6.794;2023-03-14T14:31:48;99684.00;;;7.90
5571;BMP180;2808;51.240;6.794;2023-03-14T14:34:28;99689.00;;;8.00
5571;BMP180;2808;51.240;6.794;2023-03-14T14:36:57;99690.00;;;8.10
5571;BMP180;2808;51.240;6.794;2023-03-14T14:39:26;99691.00;;;8.10
5571;BMP180;2808;51.240;6.794;2023-03-14T14:41:54;99709.00;;;8.20
5571;BMP180;2808;51.240;6.794;2023-03-14T14:44:31;99728.00;;;8.40
5571;BMP180;2808;51.240;6.794;2023-03-14T14:47:01;99732.00;;;8.40
5571;BMP180;2808;51.240;6.794;2023-03-14T14:49:30;99736.00;;;8.50
5571;BMP180;2808;51.240;6.794;2023-03-14T14:52:04;99748.00;;;8.50
5571;BMP180;2808;51.240;6.794;2023-03-14T14:54:37;99755.00;;;8.50
5571;BMP180;2808;51.240;6.794;2023-03-14T14:57:13;99759.00;;;8.50
5571;BMP180;2808;51.240;6.794;2023-03-14T14:59:44;99770.00;;;8.70
5571;BMP180;2808;51.240;6.794;2023-03-14T15:02:30;99782.00;;;8.80
5571;BMP180;2808;51.240;6.794;2023-03-14T15:07:43;99795.00;;;8.90
5571;BMP180;2808;51.240;6.794;2023-03-14T15:10:11;99803.00;;;9.00
5571;BMP180;2808;51.240;6.794;2023-03-14T15:12:43;99822.00;;;9.10
5571;BMP180;2808;51.240;6.794;2023-03-14T15:15:11;99822.00;;;9.10
5571;BMP180;2808;51.240;6.794;2023-03-14T15:17:39;99826.00;;;9.00
5571;BMP180;2808;51.240;6.794;2023-03-14T15:20:12;99831.00;;;8.90
5571;BMP180;2808;51.240;6.794;2023-03-14T15:22:42;99837.00;;;8.90
5571;BMP180;2808;51.240;6.794;2023-03-14T15:25:10;99852.00;;;8.80
5571;BMP180;2808;51.240;6.794;2023-03-14T15:27:40;99854.00;;;8.80